sensor_id;sensor_type;location;lat;lon;timestamp;pressure;altitude;pressure_sealevel;temperature;humidity
30875;BME280;17581;43.222;27.924;2023-07-02T00:02:16;99982.03;;;23.48;65.76
30875;BME280;17581;43.222;27.924;2023-07-02T00:04:42;99991.94;;;23.49;66.07
30875;BME280;17581;43.222;27.924;2023-07-02T00:07:08;99970.28;;;23.35;66.12
30875;BME280;17581;43.222;27.924;2023-07-02T00:09:34;99992.31;;;23.53;66.16
30875;BME280;17581;43.222;27.924;2023-07-02T00:11:59;99954.41;;;23.37;65.57
30875;BME280;17581;43.222;27.924;2023-07-02T00:14:25;99961.59;;;23.44;65.52
30875;BME280;17581;43.222;27.924;2023-07-02T00:16:50;99963.28;;;23.45;65.59
30875;BME280;17581;43.222;27.924;2023-07-02T00:19:16;99979.00;;;23.56;65.66
30875;BME280;17581;43.222;27.924;2023-07-02T00:21:42;99955.66;;;23.47;64.87
30875;BME280;17581;43.222;27.924;2023-07-02T00:24:08;99925.38;;;23.29;65.17
30875;BME280;17581;43.222;27.924;2023-07-02T00:26:37;99968.91;;;23.50;65.20
30875;BME280;17581;43.222;27.924;2023-07-02T00:29:03;99946.44;;;23.35;65.62
30875;BME280;17581;43.222;27.924;2023-07-02T00:31:31;99968.13;;;23.43;66.07
30875;BME280;17581;43.222;27.924;2023-07-02T00:33:57;99938.47;;;23.27;66.32
30875;BME280;17581;43.222;27.924;2023-07-02T00:36:22;99951.31;;;23.33;66.43
30875;BME280;17581;43.222;27.924;2023-07-02T00:38:48;99939.69;;;23.31;66.64
30875;BME280;17581;43.222;27.924;2023-07-02T00:41:14;99918.47;;;23.20;66.83
30875;BME280;17581;43.222;27.924;2023-07-02T00:43:40;99956.53;;;23.41;67.14
30875;BME280;17581;43.222;27.924;2023-07-02T00:46:14;99947.69;;;23.39;67.31
30875;BME280;17581;43.222;27.924;2023-07-02T00:48:49;99963.44;;;23.50;67.20
30875;BME280;17581;43.222;27.924;2023-07-02T00:51:17;99954.84;;;23.40;67.50
30875;BME280;17581;43.222;27.924;2023-07-02T00:53:46;99911.31;;;23.19;68.13
30875;BME280;17581;43.222;27.924;2023-07-02T00:56:12;99938.41;;;23.33;68.13
30875;BME280;17581;43.222;27.924;2023-07-02T00:58:40;99941.13;;;23.40;68.39
30875;BME280;17581;43.222;27.924;2023-07-02T01:01:12;99941.75;;;23.42;68.42
30875;BME280;17581;43.222;27.924;2023-07-02T01:03:38;99932.31;;;23.31;68.54
30875;BME280;17581;43.222;27.924;2023-07-02T01:06:03;99922.63;;;23.29;68.73
30875;BME280;17581;43.222;27.924;2023-07-02T01:08:29;99911.91;;;23.21;68.86
30875;BME280;17581;43.222;27.924;2023-07-02T01:10:54;99942.44;;;23.31;69.40
30875;BME280;17581;43.222;27.924;2023-07-02T01:13:21;99933.88;;;23.21;69.74
30875;BME280;17581;43.222;27.924;2023-07-02T01:15:49;99932.41;;;23.18;70.19
30875;BME280;17581;43.222;27.924;2023-07-02T01:18:15;99915.38;;;23.10;70.73
30875;BME280;17581;43.222;27.924;2023-07-02T01:20:42;99934.50;;;23.23;71.04
30875;BME280;17581;43.222;27.924;2023-07-02T01:23:08;99906.94;;;23.11;71.16
30875;BME280;17581;43.222;27.924;2023-07-02T01:25:34;99927.16;;;23.17;71.79
30875;BME280;17581;43.222;27.924;2023-07-02T01:28:02;99914.28;;;23.17;72.09
30875;BME280;17581;43.222;27.924;2023-07-02T01:30:28;99904.41;;;23.10;72.19
30875;BME280;17581;43.222;27.924;2023-07-02T01:32:54;99913.59;;;23.22;72.30
30875;BME280;17581;43.222;27.924;2023-07-02T01:35:19;99894.69;;;23.14;72.81
30875;BME280;17581;43.222;27.924;2023-07-02T01:37:45;99902.69;;;23.15;73.22
30875;BME280;17581;43.222;27.924;2023-07-02T01:40:10;99890.09;;;23.08;73.50
30875;BME280;17581;43.222;27.924;2023-07-02T01:42:36;99916.63;;;23.14;73.73
30875;BME280;17581;43.222;27.924;2023-07-02T01:45:03;99896.78;;;23.12;74.21
30875;BME280;17581;43.222;27.924;2023-07-02T01:47:28;99923.22;;;23.31;74.73
30875;BME280;17581;43.222;27.924;2023-07-02T01:49:54;99911.91;;;23.21;74.98
30875;BME280;17581;43.222;27.924;2023-07-02T01:52:19;99901.84;;;23.15;75.51
30875;BME280;17581;43.222;27.924;2023-07-02T01:54:45;99900.94;;;23.21;75.58
30875;BME280;17581;43.222;27.924;2023-07-02T01:57:10;99911.84;;;23.27;76.25
30875;BME280;17581;43.222;27.924;2023-07-02T01:59:36;99915.28;;;23.23;76.17
30875;BME280;17581;43.222;27.924;2023-07-02T02:02:01;99918.59;;;23.31;76.22
30875;BME280;17581;43.222;27.924;2023-07-02T02:04:27;99899.28;;;23.20;76.50
30875;BME280;17581;43.222;27.924;2023-07-02T02:06:53;99925.38;;;23.29;76.79
30875;BME280;17581;43.222;27.924;2023-07-02T02:09:18;99912.34;;;23.18;77.36
30875;BME280;17581;43.222;27.924;2023-07-02T02:11:47;99923.28;;;23.24;77.87
30875;BME280;17581;43.222;27.924;2023-07-02T02:14:13;99911.53;;;23.17;78.31
30875;BME280;17581;43.222;27.924;2023-07-02T02:16:39;99916.13;;;23.23;78.49
30875;BME280;17581;43.222;27.924;2023-07-02T02:19:05;99911.66;;;23.29;78.81
30875;BME280;17581;43.222;27.924;2023-07-02T02:21:30;99892.78;;;23.14;79.24
30875;BME280;17581;43.222;27.924;2023-07-02T02:23:56;99889.66;;;23.11;79.54
30875;BME280;17581;43.222;27.924;2023-07-02T02:26:22;99906.22;;;23.22;79.93
30875;BME280;17581;43.222;27.924;2023-07-02T02:28:48;99887.97;;;23.10;80.31
30875;BME280;17581;43.222;27.924;2023-07-02T02:31:15;99909.47;;;23.13;80.88
30875;BME280;17581;43.222;27.924;2023-07-02T02:33:40;99917.84;;;23.18;81.28
30875;BME280;17581;43.222;27.924;2023-07-02T02:36:06;99921.44;;;23.18;81.64
30875;BME280;17581;43.222;27.924;2023-07-02T02:38:31;99911.16;;;23.14;81.73
30875;BME280;17581;43.222;27.924;2023-07-02T02:40:57;99884.66;;;23.01;82.06
30875;BME280;17581;43.222;27.924;2023-07-02T02:43:22;99904.38;;;23.16;82.54
30875;BME280;17581;43.222;27.924;2023-07-02T02:45:48;99922.03;;;23.27;82.33
30875;BME280;17581;43.222;27.924;2023-07-02T02:48:13;99910.41;;;23.25;82.56
30875;BME280;17581;43.222;27.924;2023-07-02T02:50:39;99926.63;;;23.33;82.54
30875;BME280;17581;43.222;27.924;2023-07-02T02:53:08;99897.38;;;23.20;82.67
30875;BME280;17581;43.222;27.924;2023-07-02T02:55:35;99902.19;;;23.25;82.82
30875;BME280;17581;43.222;27.924;2023-07-02T02:58:01;99912.25;;;23.31;82.44
30875;BME280;17581;43.222;27.924;2023-07-02T03:00:27;99907.84;;;23.30;82.62
30875;BME280;17581;43.222;27.924;2023-07-02T03:02:52;99909.28;;;23.39;82.88
30875;BME280;17581;43.222;27.924;2023-07-02T03:05:18;99920.84;;;23.41;82.91
30875;BME280;17581;43.222;27.924;2023-07-02T03:07:43;99913.47;;;23.42;82.89
30875;BME280;17581;43.222;27.924;2023-07-02T03:10:09;99897.03;;;23.35;82.73
30875;BME280;17581;43.222;27.924;2023-07-02T03:12:34;99907.97;;;23.42;82.50
30875;BME280;17581;43.222;27.924;2023-07-02T03:15:00;99915.91;;;23.50;82.53
30875;BME280;17581;43.222;27.924;2023-07-02T03:17:25;99917.59;;;23.51;82.43
30875;BME280;17581;43.222;27.924;2023-07-02T03:19:51;99914.69;;;23.46;82.67
30875;BME280;17581;43.222;27.924;2023-07-02T03:22:17;99921.41;;;23.50;82.52
30875;BME280;17581;43.222;27.924;2023-07-02T03:24:42;99920.91;;;23.59;82.63
30875;BME280;17581;43.222;27.924;2023-07-02T03:27:08;99927.63;;;23.63;82.74
30875;BME280;17581;43.222;27.924;2023-07-02T03:29:36;99930.97;;;23.65;82.50
30875;BME280;17581;43.222;27.924;2023-07-02T03:32:04;99932.13;;;23.76;82.51
30875;BME280;17581;43.222;27.924;2023-07-02T03:34:29;99905.66;;;23.63;82.23
30875;BME280;17581;43.222;27.924;2023-07-02T03:36:55;99935.88;;;23.81;82.51
30875;BME280;17581;43.222;27.924;2023-07-02T03:39:21;99922.16;;;23.81;82.36
30875;BME280;17581;43.222;27.924;2023-07-02T03:41:46;99937.47;;;23.89;82.45
30875;BME280;17581;43.222;27.924;2023-07-02T03:44:12;99942.50;;;23.92;82.50
30875;BME280;17581;43.222;27.924;2023-07-02T03:46:37;99932.31;;;23.99;82.18
30875;BME280;17581;43.222;27.924;2023-07-02T03:49:03;99938.00;;;23.98;82.37
30875;BME280;17581;43.222;27.924;2023-07-02T03:51:29;99933.59;;;23.97;82.74
30875;BME280;17581;43.222;27.924;2023-07-02T03:53:55;99944.25;;;24.11;82.81
30875;BME280;17581;43.222;27.924;2023-07-02T03:56:21;99927.78;;;24.05;83.05
30875;BME280;17581;43.222;27.924;2023-07-02T03:58:46;99938.28;;;24.14;82.29
30875;BME280;17581;43.222;27.924;2023-07-02T04:01:12;99927.50;;;24.13;82.29
30875;BME280;17581;43.222;27.924;2023-07-02T04:03:38;99943.06;;;24.19;82.12
30875;BME280;17581;43.222;27.924;2023-07-02T04:06:03;99921.56;;;24.16;82.11
30875;BME280;17581;43.222;27.924;2023-07-02T04:08:31;99937.75;;;24.24;81.80
30875;BME280;17581;43.222;27.924;2023-07-02T04:10:56;99942.63;;;24.22;81.78
30875;BME280;17581;43.222;27.924;2023-07-02T04:13:22;99945.47;;;24.33;82.08
30875;BME280;17581;43.222;27.924;2023-07-02T04:15:47;99924.91;;;24.36;81.47
30875;BME280;17581;43.222;27.924;2023-07-02T04:18:13;99942.06;;;24.31;80.97
30875;BME280;17581;43.222;27.924;2023-07-02T04:20:38;99954.69;;;24.39;80.40
30875;BME280;17581;43.222;27.924;2023-07-02T04:23:05;99945.84;;;24.37;80.31
30875;BME280;17581;43.222;27.924;2023-07-02T04:25:30;99933.16;;;24.36;80.82
30875;BME280;17581;43.222;27.924;2023-07-02T04:27:56;99926.94;;;24.41;80.65
30875;BME280;17581;43.222;27.924;2023-07-02T04:30:23;99944.72;;;24.56;80.54
30875;BME280;17581;43.222;27.924;2023-07-02T04:32:49;99936.34;;;24.51;79.79
30875;BME280;17581;43.222;27.924;2023-07-02T04:35:14;99929.03;;;24.45;79.63
30875;BME280;17581;43.222;27.924;2023-07-02T04:37:40;99943.78;;;24.62;79.12
30875;BME280;17581;43.222;27.924;2023-07-02T04:40:06;99944.47;;;24.76;78.51
30875;BME280;17581;43.222;27.924;2023-07-02T04:42:36;99944.31;;;24.89;77.72
30875;BME280;17581;43.222;27.924;2023-07-02T04:45:04;99943.63;;;24.75;76.46
30875;BME280;17581;43.222;27.924;2023-07-02T04:47:30;99946.22;;;24.70;76.59
30875;BME280;17581;43.222;27.924;2023-07-02T04:49:55;99961.81;;;24.76;77.41
30875;BME280;17581;43.222;27.924;2023-07-02T04:52:21;99951.28;;;24.73;76.85
30875;BME280;17581;43.222;27.924;2023-07-02T04:54:46;99960.28;;;24.62;77.40
30875;BME280;17581;43.222;27.924;2023-07-02T04:57:12;99971.84;;;24.53;78.24
30875;BME280;17581;43.222;27.924;2023-07-02T04:59:39;99960.09;;;24.46;78.64
30875;BME280;17581;43.222;27.924;2023-07-02T05:02:04;99970.63;;;24.49;78.82
30875;BME280;17581;43.222;27.924;2023-07-02T05:04:29;99963.50;;;24.59;78.43
30875;BME280;17581;43.222;27.924;2023-07-02T05:06:55;99955.63;;;24.63;78.03
30875;BME280;17581;43.222;27.924;2023-07-02T05:09:20;99973.91;;;24.57;78.26
30875;BME280;17581;43.222;27.924;2023-07-02T05:11:46;99952.97;;;24.56;78.98
30875;BME280;17581;43.222;27.924;2023-07-02T05:14:11;99970.09;;;24.58;78.95
30875;BME280;17581;43.222;27.924;2023-07-02T05:16:37;99973.91;;;24.57;78.72
30875;BME280;17581;43.222;27.924;2023-07-02T05:19:02;99964.63;;;24.70;79.29
30875;BME280;17581;43.222;27.924;2023-07-02T05:21:28;99969.41;;;24.92;78.45
30875;BME280;17581;43.222;27.924;2023-07-02T05:23:53;99955.81;;;24.98;77.46
30875;BME280;17581;43.222;27.924;2023-07-02T05:26:19;99963.44;;;24.96;76.92
30875;BME280;17581;43.222;27.924;2023-07-02T05:28:44;99964.75;;;24.93;77.16
30875;BME280;17581;43.222;27.924;2023-07-02T05:31:10;99943.94;;;24.85;77.13
30875;BME280;17581;43.222;27.924;2023-07-02T05:33:35;99969.09;;;25.01;77.00
30875;BME280;17581;43.222;27.924;2023-07-02T05:36:00;99969.56;;;24.98;77.25
30875;BME280;17581;43.222;27.924;2023-07-02T05:38:26;99973.50;;;25.02;77.52
30875;BME280;17581;43.222;27.924;2023-07-02T05:40:52;99972.84;;;25.18;76.88
30875;BME280;17581;43.222;27.924;2023-07-02T05:43:18;99982.13;;;25.35;76.13
30875;BME280;17581;43.222;27.924;2023-07-02T05:45:43;99978.41;;;25.41;75.69
30875;BME280;17581;43.222;27.924;2023-07-02T05:48:08;99973.44;;;25.50;75.91
30875;BME280;17581;43.222;27.924;2023-07-02T05:50:34;99968.16;;;25.60;74.97
30875;BME280;17581;43.222;27.924;2023-07-02T05:52:59;99958.19;;;25.47;74.73
30875;BME280;17581;43.222;27.924;2023-07-02T05:55:25;99974.94;;;25.34;75.31
30875;BME280;17581;43.222;27.924;2023-07-02T05:57:50;99980.06;;;25.42;75.90
30875;BME280;17581;43.222;27.924;2023-07-02T06:00:16;99974.56;;;25.42;75.79
30875;BME280;17581;43.222;27.924;2023-07-02T06:02:41;99974.72;;;25.47;75.62
30875;BME280;17581;43.222;27.924;2023-07-02T06:05:07;99959.25;;;25.34;76.38
30875;BME280;17581;43.222;27.924;2023-07-02T06:07:33;99962.59;;;25.48;75.77
30875;BME280;17581;43.222;27.924;2023-07-02T06:09:58;99972.34;;;25.51;76.24
30875;BME280;17581;43.222;27.924;2023-07-02T06:12:24;99965.53;;;25.65;76.36
30875;BME280;17581;43.222;27.924;2023-07-02T06:14:49;99966.72;;;25.69;76.07
30875;BME280;17581;43.222;27.924;2023-07-02T06:17:14;99975.38;;;25.84;76.04
30875;BME280;17581;43.222;27.924;2023-07-02T06:19:40;99973.69;;;25.83;76.46
30875;BME280;17581;43.222;27.924;2023-07-02T06:22:06;99967.91;;;25.50;78.31
30875;BME280;17581;43.222;27.924;2023-07-02T06:24:32;99958.97;;;25.13;80.07
30875;BME280;17581;43.222;27.924;2023-07-02T06:26:57;99961.84;;;25.18;80.97
30875;BME280;17581;43.222;27.924;2023-07-02T06:29:23;99965.53;;;25.12;82.19
30875;BME280;17581;43.222;27.924;2023-07-02T06:31:50;99954.88;;;25.04;82.01
30875;BME280;17581;43.222;27.924;2023-07-02T06:34:15;99956.13;;;24.89;81.66
30875;BME280;17581;43.222;27.924;2023-07-02T06:36:41;99964.53;;;24.95;81.85
30875;BME280;17581;43.222;27.924;2023-07-02T06:39:07;99957.81;;;24.90;82.65
30875;BME280;17581;43.222;27.924;2023-07-02T06:41:34;99956.13;;;24.89;82.26
30875;BME280;17581;43.222;27.924;2023-07-02T06:44:00;99966.34;;;25.01;82.27
30875;BME280;17581;43.222;27.924;2023-07-02T06:46:25;99972.38;;;25.21;81.71
30875;BME280;17581;43.222;27.924;2023-07-02T06:48:51;99963.91;;;25.34;81.12
30875;BME280;17581;43.222;27.924;2023-07-02T06:51:16;99973.50;;;25.43;79.36
30875;BME280;17581;43.222;27.924;2023-07-02T06:53:44;99966.81;;;25.51;78.44
30875;BME280;17581;43.222;27.924;2023-07-02T06:56:10;99973.06;;;25.58;78.41
30875;BME280;17581;43.222;27.924;2023-07-02T06:58:36;99972.22;;;25.57;78.86
30875;BME280;17581;43.222;27.924;2023-07-02T07:01:01;99963.84;;;25.52;78.79
30875;BME280;17581;43.222;27.924;2023-07-02T07:03:27;99961.69;;;25.54;79.04
30875;BME280;17581;43.222;27.924;2023-07-02T07:05:53;99957.97;;;25.60;78.69
30875;BME280;17581;43.222;27.924;2023-07-02T07:08:18;99968.63;;;25.57;78.17
30875;BME280;17581;43.222;27.924;2023-07-02T07:10:44;99967.34;;;25.59;77.65
30875;BME280;17581;43.222;27.924;2023-07-02T07:13:11;99979.69;;;25.68;78.27
30875;BME280;17581;43.222;27.924;2023-07-02T07:15:36;99970.56;;;25.79;77.59
30875;BME280;17581;43.222;27.924;2023-07-02T07:18:02;99966.38;;;25.65;77.17
30875;BME280;17581;43.222;27.924;2023-07-02T07:20:28;99965.75;;;25.75;75.60
30875;BME280;17581;43.222;27.924;2023-07-02T07:22:53;99973.06;;;25.81;75.57
30875;BME280;17581;43.222;27.924;2023-07-02T07:25:19;99968.66;;;25.80;72.78
30875;BME280;17581;43.222;27.924;2023-07-02T07:27:45;99951.28;;;25.91;75.32
30875;BME280;17581;43.222;27.924;2023-07-02T07:30:11;99955.94;;;25.79;74.62
30875;BME280;17581;43.222;27.924;2023-07-02T07:32:36;99973.19;;;25.86;74.02
30875;BME280;17581;43.222;27.924;2023-07-02T07:35:02;99972.13;;;25.98;75.81
30875;BME280;17581;43.222;27.924;2023-07-02T07:37:27;99959.91;;;25.94;76.21
30875;BME280;17581;43.222;27.924;2023-07-02T07:39:53;99949.34;;;25.91;77.17
30875;BME280;17581;43.222;27.924;2023-07-02T07:42:18;99971.75;;;26.18;76.98
30875;BME280;17581;43.222;27.924;2023-07-02T07:44:46;99943.97;;;26.08;76.25
30875;BME280;17581;43.222;27.924;2023-07-02T07:47:12;99945.97;;;26.13;76.04
30875;BME280;17581;43.222;27.924;2023-07-02T07:49:37;99954.72;;;26.21;75.28
30875;BME280;17581;43.222;27.924;2023-07-02T07:52:03;99950.53;;;26.19;74.89
30875;BME280;17581;43.222;27.924;2023-07-02T07:54:32;99968.47;;;26.33;75.14
30875;BME280;17581;43.222;27.924;2023-07-02T07:56:57;99951.38;;;26.19;74.24
30875;BME280;17581;43.222;27.924;2023-07-02T07:59:23;99934.94;;;26.36;74.45
30875;BME280;17581;43.222;27.924;2023-07-02T08:01:48;99966.16;;;26.53;73.94
30875;BME280;17581;43.222;27.924;2023-07-02T08:04:14;99963.19;;;26.43;73.57
30875;BME280;17581;43.222;27.924;2023-07-02T08:06:39;99971.63;;;26.65;74.19
30875;BME280;17581;43.222;27.924;2023-07-02T08:09:05;99979.56;;;26.61;72.67
30875;BME280;17581;43.222;27.924;2023-07-02T08:11:30;99963.41;;;26.53;72.28
30875;BME280;17581;43.222;27.924;2023-07-02T08:13:55;99960.41;;;26.55;72.97
30875;BME280;17581;43.222;27.924;2023-07-02T08:16:21;99980.09;;;26.86;71.23
30875;BME280;17581;43.222;27.924;2023-07-02T08:18:46;99976.53;;;26.74;70.17
30875;BME280;17581;43.222;27.924;2023-07-02T08:21:12;99970.06;;;26.69;70.92
30875;BME280;17581;43.222;27.924;2023-07-02T08:23:37;99967.16;;;26.47;71.12
30875;BME280;17581;43.222;27.924;2023-07-02T08:26:03;99960.41;;;26.55;71.62
30875;BME280;17581;43.222;27.924;2023-07-02T08:28:28;99956.28;;;26.69;70.76
30875;BME280;17581;43.222;27.924;2023-07-02T08:30:54;99977.03;;;26.71;70.71
30875;BME280;17581;43.222;27.924;2023-07-02T08:33:20;99974.66;;;26.63;72.55
30875;BME280;17581;43.222;27.924;2023-07-02T08:35:46;99966.47;;;26.68;72.10
30875;BME280;17581;43.222;27.924;2023-07-02T08:38:12;99952.75;;;26.85;72.30
30875;BME280;17581;43.222;27.924;2023-07-02T08:40:37;99952.72;;;26.96;72.54
30875;BME280;17581;43.222;27.924;2023-07-02T08:43:03;99952.72;;;26.96;73.77
30875;BME280;17581;43.222;27.924;2023-07-02T08:45:29;99938.31;;;26.66;73.83
30875;BME280;17581;43.222;27.924;2023-07-02T08:47:55;99952.28;;;26.76;75.07
30875;BME280;17581;43.222;27.924;2023-07-02T08:50:22;99972.47;;;27.05;75.31
30875;BME280;17581;43.222;27.924;2023-07-02T08:52:48;99970.72;;;27.16;74.93
30875;BME280;17581;43.222;27.924;2023-07-02T08:55:14;99971.31;;;27.18;74.63
30875;BME280;17581;43.222;27.924;2023-07-02T08:57:40;99977.19;;;27.21;75.01
30875;BME280;17581;43.222;27.924;2023-07-02T09:00:14;99972.47;;;27.22;76.28
30875;BME280;17581;43.222;27.924;2023-07-02T09:02:40;99973.16;;;27.29;76.47
30875;BME280;17581;43.222;27.924;2023-07-02T09:05:06;99964.69;;;27.19;75.27
30875;BME280;17581;43.222;27.924;2023-07-02T09:07:31;99958.59;;;27.17;76.58
30875;BME280;17581;43.222;27.924;2023-07-02T09:09:57;99974.50;;;27.26;76.74
30875;BME280;17581;43.222;27.924;2023-07-02T09:12:26;99982.72;;;27.21;77.58
30875;BME280;17581;43.222;27.924;2023-07-02T09:14:56;99980.19;;;27.20;76.58
30875;BME280;17581;43.222;27.924;2023-07-02T09:17:30;99986.19;;;27.17;74.67
30875;BME280;17581;43.222;27.924;2023-07-02T09:19:57;99981.47;;;27.00;76.92
30875;BME280;17581;43.222;27.924;2023-07-02T09:22:25;99972.81;;;27.09;77.03
30875;BME280;17581;43.222;27.924;2023-07-02T09:24:52;99978.19;;;27.15;75.78
30875;BME280;17581;43.222;27.924;2023-07-02T09:27:21;99972.81;;;27.09;77.10
30875;BME280;17581;43.222;27.924;2023-07-02T09:29:52;99957.09;;;27.09;76.59
30875;BME280;17581;43.222;27.924;2023-07-02T09:32:25;99972.97;;;27.19;76.87
30875;BME280;17581;43.222;27.924;2023-07-02T09:34:53;99961.50;;;26.93;76.41
30875;BME280;17581;43.222;27.924;2023-07-02T09:37:20;99961.72;;;26.92;77.78
30875;BME280;17581;43.222;27.924;2023-07-02T09:39:50;99974.97;;;26.67;78.61
30875;BME280;17581;43.222;27.924;2023-07-02T09:42:16;99964.31;;;26.70;78.69
30875;BME280;17581;43.222;27.924;2023-07-02T09:44:45;99974.59;;;26.86;79.18
30875;BME280;17581;43.222;27.924;2023-07-02T09:47:12;99963.06;;;26.89;77.95
30875;BME280;17581;43.222;27.924;2023-07-02T09:49:43;99958.41;;;26.78;78.17
30875;BME280;17581;43.222;27.924;2023-07-02T09:52:11;99978.44;;;26.85;77.89
30875;BME280;17581;43.222;27.924;2023-07-02T09:54:37;99969.78;;;26.93;77.01
30875;BME280;17581;43.222;27.924;2023-07-02T09:57:04;99981.97;;;26.97;76.18
30875;BME280;17581;43.222;27.924;2023-07-02T09:59:31;99974.81;;;27.13;76.55
30875;BME280;17581;43.222;27.924;2023-07-02T10:01:57;99972.59;;;27.27;75.35
30875;BME280;17581;43.222;27.924;2023-07-02T10:04:23;99953.88;;;27.00;74.99
30875;BME280;17581;43.222;27.924;2023-07-02T10:06:56;99964.19;;;27.05;75.48
30875;BME280;17581;43.222;27.924;2023-07-02T10:09:42;99955.34;;;26.91;75.39
30875;BME280;17581;43.222;27.924;2023-07-02T10:12:22;99951.94;;;26.73;76.38
30875;BME280;17581;43.222;27.924;2023-07-02T10:14:50;99961.66;;;26.75;77.07
30875;BME280;17581;43.222;27.924;2023-07-02T10:19:55;99965.72;;;26.84;76.51
30875;BME280;17581;43.222;27.924;2023-07-02T10:22:21;99961.91;;;27.02;76.24
30875;BME280;17581;43.222;27.924;2023-07-02T10:27:18;99958.59;;;27.17;74.20
30875;BME280;17581;43.222;27.924;2023-07-02T10:29:49;99958.66;;;27.05;74.00
30875;BME280;17581;43.222;27.924;2023-07-02T10:32:26;99945.34;;;27.19;73.66
30875;BME280;17581;43.222;27.924;2023-07-02T10:34:53;99945.53;;;27.29;74.11
30875;BME280;17581;43.222;27.924;2023-07-02T10:37:19;99943.97;;;27.49;72.71
30875;BME280;17581;43.222;27.924;2023-07-02T10:39:44;99914.09;;;27.46;72.39
30875;BME280;17581;43.222;27.924;2023-07-02T10:42:10;99933.69;;;27.45;71.73
30875;BME280;17581;43.222;27.924;2023-07-02T10:44:50;99935.53;;;27.39;71.61
30875;BME280;17581;43.222;27.924;2023-07-02T10:47:16;99929.16;;;27.39;72.19
30875;BME280;17581;43.222;27.924;2023-07-02T10:49:42;99941.28;;;27.38;72.17
30875;BME280;17581;43.222;27.924;2023-07-02T10:52:07;99932.03;;;27.44;72.94
30875;BME280;17581;43.222;27.924;2023-07-02T10:54:46;99917.97;;;27.45;71.25
30875;BME280;17581;43.222;27.924;2023-07-02T10:57:17;99908.69;;;27.51;71.88
30875;BME280;17581;43.222;27.924;2023-07-02T10:59:45;99916.28;;;27.44;71.30
30875;BME280;17581;43.222;27.924;2023-07-02T11:02:11;99911.59;;;27.45;72.23
30875;BME280;17581;43.222;27.924;2023-07-02T11:04:37;99899.78;;;27.49;71.77
30875;BME280;17581;43.222;27.924;2023-07-02T11:07:03;99916.28;;;27.61;71.11
30875;BME280;17581;43.222;27.924;2023-07-02T11:09:29;99918.94;;;27.73;71.32
30875;BME280;17581;43.222;27.924;2023-07-02T11:11:56;99915.88;;;27.91;70.63
30875;BME280;17581;43.222;27.924;2023-07-02T11:14:36;99924.44;;;27.89;70.45
30875;BME280;17581;43.222;27.924;2023-07-02T11:17:03;99905.59;;;27.86;70.12
30875;BME280;17581;43.222;27.924;2023-07-02T11:19:34;99916.25;;;27.78;70.09
30875;BME280;17581;43.222;27.924;2023-07-02T11:21:59;99918.22;;;27.61;71.31
30875;BME280;17581;43.222;27.924;2023-07-02T11:24:33;99902.81;;;27.86;70.62
30875;BME280;17581;43.222;27.924;2023-07-02T11:27:01;99913.00;;;28.02;68.82
30875;BME280;17581;43.222;27.924;2023-07-02T11:29:28;99900.56;;;28.22;67.98
30875;BME280;17581;43.222;27.924;2023-07-02T11:31:54;99919.47;;;28.30;67.60
30875;BME280;17581;43.222;27.924;2023-07-02T11:34:21;99922.19;;;28.46;66.86
30875;BME280;17581;43.222;27.924;2023-07-02T11:36:47;99893.41;;;28.04;67.68
30875;BME280;17581;43.222;27.924;2023-07-02T11:39:13;99896.44;;;27.64;68.98
30875;BME280;17581;43.222;27.924;2023-07-02T11:41:43;99920.41;;;27.80;69.69
30875;BME280;17581;43.222;27.924;2023-07-02T11:44:09;99916.91;;;27.85;67.73
30875;BME280;17581;43.222;27.924;2023-07-02T11:46:35;99907.56;;;27.69;68.70
30875;BME280;17581;43.222;27.924;2023-07-02T11:49:02;99910.31;;;27.69;68.99
30875;BME280;17581;43.222;27.924;2023-07-02T11:51:30;99897.97;;;27.77;68.33
30875;BME280;17581;43.222;27.924;2023-07-02T11:53:56;99897.38;;;27.91;67.55
30875;BME280;17581;43.222;27.924;2023-07-02T11:56:23;99904.94;;;28.18;66.38
30875;BME280;17581;43.222;27.924;2023-07-02T11:58:48;99888.66;;;28.21;66.37
30875;BME280;17581;43.222;27.924;2023-07-02T12:01:14;99894.44;;;28.41;66.00
30875;BME280;17581;43.222;27.924;2023-07-02T12:03:44;99901.69;;;28.47;64.84
30875;BME280;17581;43.222;27.924;2023-07-02T12:06:09;99889.88;;;28.52;64.44
30875;BME280;17581;43.222;27.924;2023-07-02T12:08:35;99884.53;;;28.45;65.02
30875;BME280;17581;43.222;27.924;2023-07-02T12:11:00;99891.06;;;28.34;65.45
30875;BME280;17581;43.222;27.924;2023-07-02T12:13:26;99896.91;;;28.16;65.84
30875;BME280;17581;43.222;27.924;2023-07-02T12:15:51;99900.38;;;28.06;65.88
30875;BME280;17581;43.222;27.924;2023-07-02T12:18:17;99889.47;;;28.00;66.44
30875;BME280;17581;43.222;27.924;2023-07-02T12:20:43;99897.09;;;27.93;66.31
30875;BME280;17581;43.222;27.924;2023-07-02T12:23:09;99877.28;;;27.58;66.79
30875;BME280;17581;43.222;27.924;2023-07-02T12:25:36;99895.94;;;27.67;66.89
30875;BME280;17581;43.222;27.924;2023-07-02T12:28:04;99894.97;;;27.78;67.45
30875;BME280;17581;43.222;27.924;2023-07-02T12:30:30;99893.44;;;27.87;66.67
30875;BME280;17581;43.222;27.924;2023-07-02T12:32:56;99890.00;;;27.97;66.23
30875;BME280;17581;43.222;27.924;2023-07-02T12:35:22;99894.06;;;28.33;65.81
30875;BME280;17581;43.222;27.924;2023-07-02T12:37:51;99900.41;;;28.55;64.04
30875;BME280;17581;43.222;27.924;2023-07-02T12:40:21;99887.34;;;28.50;64.40
30875;BME280;17581;43.222;27.924;2023-07-02T12:42:47;99889.22;;;28.45;63.81
30875;BME280;17581;43.222;27.924;2023-07-02T12:45:13;99907.00;;;28.49;64.93
30875;BME280;17581;43.222;27.924;2023-07-02T12:47:41;99900.97;;;28.57;64.74
30875;BME280;17581;43.222;27.924;2023-07-02T12:50:08;99898.63;;;28.66;63.96
30875;BME280;17581;43.222;27.924;2023-07-02T12:52:34;99904.38;;;28.64;64.47